createdAt,value
2023-01-25T00:02:07.973Z,69.95
2023-01-25T00:04:34.833Z,69.87
2023-01-25T00:07:01.777Z,69.78
2023-01-25T00:09:28.576Z,69.76
2023-01-25T00:11:57.979Z,69.72
2023-01-25T00:14:25.381Z,69.75
2023-01-25T00:16:52.260Z,69.74
2023-01-25T00:19:19.361Z,70.03
2023-01-25T00:21:46.182Z,70.08
2023-01-25T00:24:14.514Z,70.16
2023-01-25T00:26:44.064Z,70.26
2023-01-25T00:29:14.322Z,70.42
2023-01-25T00:31:59.030Z,70.47
2023-01-25T00:34:25.861Z,70.44
2023-01-25T00:36:57.661Z,70.52
2023-01-25T00:39:26.998Z,70.38
2023-01-25T00:41:54.589Z,70.36
2023-01-25T00:44:21.987Z,70.55
2023-01-25T00:46:48.795Z,70.16
2023-01-25T00:49:24.387Z,70.14
2023-01-25T00:51:52.513Z,70.10
2023-01-25T00:54:19.631Z,70.11
2023-01-25T00:56:46.919Z,70.29
2023-01-25T00:59:14.137Z,70.22
2023-01-25T01:01:41.617Z,70.44
2023-01-25T01:04:08.767Z,70.69
2023-01-25T01:06:37.351Z,70.75
2023-01-25T01:09:06.156Z,71.07
2023-01-25T01:11:33.190Z,71.22
2023-01-25T01:14:00.327Z,71.17
2023-01-25T01:16:27.358Z,71.04
2023-01-25T01:18:54.319Z,71.29
2023-01-25T01:21:21.645Z,71.20
2023-01-25T01:23:48.624Z,71.25
2023-01-25T01:26:19.492Z,71.34
2023-01-25T01:28:46.792Z,71.41
2023-01-25T01:31:17.732Z,71.20
2023-01-25T01:33:53.853Z,71.19
2023-01-25T01:36:22.806Z,71.39
2023-01-25T01:38:49.896Z,71.42
2023-01-25T01:41:17.507Z,71.41
2023-01-25T01:43:45.052Z,71.28
2023-01-25T01:46:37.437Z,71.40
2023-01-25T01:49:17.180Z,71.16
2023-01-25T01:51:56.801Z,71.19
2023-01-25T01:54:40.764Z,71.70
2023-01-25T01:57:16.614Z,71.48
2023-01-25T01:59:53.162Z,71.67
2023-01-25T02:02:20.314Z,71.60
2023-01-25T02:04:49.261Z,71.64
2023-01-25T02:07:35.250Z,71.49
2023-01-25T02:10:04.970Z,71.67
2023-01-25T02:12:32.599Z,71.87
2023-01-25T02:15:00.101Z,71.84
2023-01-25T02:17:31.092Z,71.64
2023-01-25T02:20:22.718Z,71.98
2023-01-25T02:23:05.254Z,71.83
2023-01-25T02:25:32.090Z,71.44
2023-01-25T02:28:11.157Z,71.55
2023-01-25T02:30:38.155Z,71.74
2023-01-25T02:33:04.979Z,71.78
2023-01-25T02:35:43.085Z,71.57
2023-01-25T02:38:13.876Z,71.63
2023-01-25T02:41:02.495Z,71.63
2023-01-25T02:43:34.293Z,71.70
2023-01-25T02:46:14.890Z,71.60
2023-01-25T02:48:44.810Z,71.67
2023-01-25T02:51:12.283Z,71.81
2023-01-25T02:53:40.509Z,72.00
2023-01-25T02:56:07.633Z,71.87
2023-01-25T02:58:34.584Z,71.83
2023-01-25T03:01:01.333Z,71.64
2023-01-25T03:03:28.125Z,71.39
2023-01-25T03:05:54.927Z,71.50
2023-01-25T03:08:21.785Z,71.54
2023-01-25T03:10:51.509Z,71.36
2023-01-25T03:13:18.254Z,71.31
2023-01-25T03:15:45.509Z,71.25
2023-01-25T03:18:12.627Z,71.41
2023-01-25T03:20:39.393Z,71.38
2023-01-25T03:23:06.194Z,71.44
2023-01-25T03:25:33.842Z,71.44
2023-01-25T03:28:09.011Z,71.55
2023-01-25T03:30:37.071Z,71.25
2023-01-25T03:33:04.615Z,71.20
2023-01-25T03:35:31.753Z,71.16
2023-01-25T03:37:58.683Z,71.41
2023-01-25T03:40:25.537Z,71.38
2023-01-25T03:42:53.717Z,71.10
2023-01-25T03:45:20.593Z,71.06
2023-01-25T03:47:47.825Z,70.74
2023-01-25T03:50:15.018Z,70.76
2023-01-25T03:52:48.374Z,70.90
2023-01-25T03:55:17.895Z,70.81
2023-01-25T03:57:49.170Z,70.77
2023-01-25T04:00:17.174Z,70.78
2023-01-25T04:02:47.548Z,70.64
2023-01-25T04:05:17.788Z,70.58
2023-01-25T04:07:45.000Z,70.68
2023-01-25T04:10:13.489Z,70.90
2023-01-25T04:12:44.272Z,70.99
2023-01-25T04:15:11.642Z,71.11
2023-01-25T04:17:39.780Z,71.34
2023-01-25T04:20:16.177Z,71.66
2023-01-25T04:22:44.038Z,71.48
2023-01-25T04:25:11.364Z,71.72
2023-01-25T04:27:43.939Z,71.58
2023-01-25T04:30:14.211Z,71.45
2023-01-25T04:32:43.263Z,71.36
2023-01-25T04:35:23.675Z,71.42
2023-01-25T04:37:58.732Z,71.35
2023-01-25T04:40:31.060Z,71.56
2023-01-25T04:42:58.283Z,71.70
2023-01-25T04:45:26.068Z,71.71
2023-01-25T04:48:01.317Z,71.83
2023-01-25T04:50:28.481Z,71.84
2023-01-25T04:52:55.776Z,70.03
2023-01-25T04:55:23.821Z,69.20
2023-01-25T04:57:52.427Z,69.48
2023-01-25T05:00:20.137Z,71.08
2023-01-25T05:02:49.300Z,70.96
2023-01-25T05:05:16.407Z,71.60
2023-01-25T05:07:45.410Z,73.21
2023-01-25T05:10:13.427Z,72.74
2023-01-25T05:12:53.277Z,72.01
2023-01-25T05:15:20.822Z,68.94
2023-01-25T05:17:47.673Z,69.22
2023-01-25T05:20:14.465Z,69.71
2023-01-25T05:22:41.341Z,69.68
2023-01-25T05:25:28.509Z,69.78
2023-01-25T05:27:55.881Z,71.97
2023-01-25T05:30:51.747Z,72.21
2023-01-25T05:33:25.115Z,71.47
2023-01-25T05:35:51.973Z,71.55
2023-01-25T05:38:18.831Z,69.65
2023-01-25T05:40:45.703Z,69.62
2023-01-25T05:43:12.539Z,68.23
2023-01-25T05:45:40.357Z,67.51
2023-01-25T05:48:08.075Z,67.34
2023-01-25T05:50:35.467Z,67.69
2023-01-25T05:53:08.856Z,67.41
2023-01-25T05:55:37.503Z,67.13
2023-01-25T05:58:08.623Z,66.66
2023-01-25T06:00:35.463Z,66.24
2023-01-25T06:03:02.924Z,66.41
2023-01-25T06:05:32.147Z,66.07
2023-01-25T06:07:59.613Z,65.42
2023-01-25T06:10:33.086Z,66.43
2023-01-25T06:13:00.138Z,66.94
2023-01-25T06:15:27.089Z,67.09
2023-01-25T06:17:57.811Z,67.24
2023-01-25T06:20:32.632Z,67.52
2023-01-25T06:23:05.259Z,67.52
2023-01-25T06:25:32.027Z,67.37
2023-01-25T06:27:58.747Z,66.88
2023-01-25T06:30:25.662Z,67.04
2023-01-25T06:32:52.379Z,67.36
2023-01-25T06:35:19.150Z,67.50
2023-01-25T06:37:46.214Z,67.41
2023-01-25T06:40:13.165Z,67.20
2023-01-25T06:42:39.912Z,67.62
2023-01-25T06:45:07.852Z,67.00
2023-01-25T06:47:35.121Z,67.00
2023-01-25T06:50:02.061Z,67.84
2023-01-25T06:52:28.905Z,67.88
2023-01-25T06:54:55.715Z,67.86
2023-01-25T06:57:22.504Z,67.83
2023-01-25T06:59:49.260Z,67.62
2023-01-25T07:02:16.349Z,67.78
2023-01-25T07:04:43.269Z,67.45
2023-01-25T07:07:10.432Z,67.51
2023-01-25T07:09:37.513Z,67.59
2023-01-25T07:12:07.100Z,68.29
2023-01-25T07:14:34.183Z,68.07
2023-01-25T07:17:02.923Z,68.06
2023-01-25T07:19:30.711Z,68.65
2023-01-25T07:21:57.445Z,68.62
2023-01-25T07:24:29.134Z,68.78
2023-01-25T07:26:56.199Z,68.17
2023-01-25T07:29:23.152Z,68.14
2023-01-25T07:31:49.956Z,67.78
2023-01-25T07:34:16.811Z,67.46
2023-01-25T07:36:43.986Z,67.35
2023-01-25T07:39:11.830Z,66.62
2023-01-25T07:41:39.272Z,66.37
2023-01-25T07:44:10.622Z,66.88
2023-01-25T07:46:45.021Z,66.69
2023-01-25T07:49:11.809Z,66.61
2023-01-25T07:51:38.617Z,66.33
2023-01-25T07:54:05.614Z,66.37
2023-01-25T07:56:40.777Z,65.61
2023-01-25T07:59:12.545Z,65.50
2023-01-25T08:01:40.148Z,65.55
2023-01-25T08:04:07.697Z,66.14
2023-01-25T08:06:39.065Z,65.43
2023-01-25T08:09:13.171Z,65.20
2023-01-25T08:11:41.816Z,64.99
2023-01-25T08:14:09.165Z,64.96
2023-01-25T08:16:35.975Z,65.17
2023-01-25T08:19:03.496Z,65.54
2023-01-25T08:21:33.085Z,65.86
2023-01-25T08:24:01.968Z,65.39
2023-01-25T08:26:29.171Z,64.80
2023-01-25T08:28:57.944Z,65.25
2023-01-25T08:31:27.281Z,65.15
2023-01-25T08:33:54.243Z,65.23
2023-01-25T08:36:21.459Z,65.69
2023-01-25T08:38:48.682Z,65.98
2023-01-25T08:41:19.502Z,65.77
2023-01-25T08:43:47.369Z,64.93
2023-01-25T08:46:17.130Z,65.28
2023-01-25T08:48:43.935Z,64.97
2023-01-25T08:51:16.581Z,64.33
2023-01-25T08:53:43.940Z,64.54
2023-01-25T08:56:13.732Z,62.85
2023-01-25T08:58:43.664Z,62.22
2023-01-25T09:01:13.909Z,62.27
2023-01-25T09:03:45.856Z,63.13
2023-01-25T09:06:13.672Z,63.09
2023-01-25T09:08:40.694Z,62.60
2023-01-25T09:11:13.646Z,62.67
2023-01-25T09:13:44.836Z,63.64
2023-01-25T09:16:14.319Z,62.13
2023-01-25T09:18:43.418Z,62.07
2023-01-25T09:21:16.714Z,61.73
2023-01-25T09:24:05.457Z,60.93
2023-01-25T09:26:34.553Z,61.64
2023-01-25T09:29:01.415Z,61.89
2023-01-25T09:31:29.508Z,61.79
2023-01-25T09:34:09.054Z,61.20
2023-01-25T09:36:36.545Z,61.67
2023-01-25T09:39:03.683Z,61.04
2023-01-25T09:41:33.369Z,61.41
2023-01-25T09:44:37.449Z,61.25
2023-01-25T09:47:33.599Z,60.16
2023-01-25T09:50:09.855Z,59.64
2023-01-25T09:53:01.456Z,59.86
2023-01-25T09:55:30.508Z,59.77
2023-01-25T09:58:00.591Z,59.78
2023-01-25T10:00:34.795Z,58.30
2023-01-25T10:03:16.172Z,57.96
2023-01-25T10:05:47.123Z,58.27
2023-01-25T10:08:57.142Z,58.43
2023-01-25T10:11:27.925Z,57.67
2023-01-25T10:13:56.493Z,57.03
2023-01-25T10:16:50.997Z,57.29
2023-01-25T10:19:39.957Z,56.34
2023-01-25T10:22:12.428Z,56.09
2023-01-25T10:25:07.639Z,56.10
2023-01-25T10:27:54.026Z,56.36
2023-01-25T10:30:28.866Z,55.66
2023-01-25T10:32:59.708Z,55.89
2023-01-25T10:35:36.122Z,55.02
2023-01-25T10:38:11.720Z,54.41
2023-01-25T10:40:52.653Z,54.45
2023-01-25T10:43:22.380Z,54.97
2023-01-25T10:45:50.585Z,54.91
2023-01-25T10:48:43.502Z,55.39
2023-01-25T10:51:10.294Z,54.46
2023-01-25T10:53:44.265Z,55.18
2023-01-25T10:56:11.125Z,55.20
2023-01-25T10:58:42.765Z,56.32
2023-01-25T11:01:24.369Z,55.95
2023-01-25T11:03:51.607Z,55.29
2023-01-25T11:06:31.196Z,55.51
2023-01-25T11:08:58.262Z,55.97
2023-01-25T11:11:37.941Z,55.15
2023-01-25T11:14:18.591Z,54.78
2023-01-25T11:16:48.640Z,54.55
2023-01-25T11:19:31.089Z,54.48
2023-01-25T11:21:59.040Z,53.78
2023-01-25T11:24:34.785Z,54.43
2023-01-25T11:27:26.855Z,53.31
2023-01-25T11:30:06.019Z,52.75
2023-01-25T11:32:33.398Z,52.98
2023-01-25T11:35:00.537Z,52.40
2023-01-25T11:37:46.229Z,52.59
2023-01-25T11:40:22.535Z,52.59
2023-01-25T11:43:15.877Z,52.85
2023-01-25T11:46:15.629Z,53.52
2023-01-25T11:48:51.072Z,53.69
2023-01-25T11:51:26.158Z,53.79
2023-01-25T11:54:07.890Z,52.91
2023-01-25T11:57:16.022Z,53.46
2023-01-25T11:59:42.964Z,53.64
2023-01-25T12:02:21.465Z,53.27
2023-01-25T12:05:21.023Z,53.16
2023-01-25T12:07:55.576Z,53.49
2023-01-25T12:10:47.678Z,52.73
2023-01-25T12:13:26.279Z,53.13
2023-01-25T12:16:20.732Z,53.68
2023-01-25T12:19:08.194Z,53.09
2023-01-25T12:21:50.487Z,52.41
2023-01-25T12:24:33.305Z,53.27
2023-01-25T12:27:12.288Z,53.30
2023-01-25T12:29:55.833Z,53.64
2023-01-25T12:32:37.253Z,53.50
2023-01-25T12:35:31.333Z,53.53
2023-01-25T12:38:04.824Z,54.03
2023-01-25T12:40:37.133Z,52.85
2023-01-25T12:43:09.377Z,53.40
2023-01-25T12:45:38.367Z,53.11
2023-01-25T12:48:17.797Z,52.93
2023-01-25T12:50:56.796Z,53.07
2023-01-25T12:53:41.676Z,52.30
2023-01-25T12:56:14.541Z,52.46
2023-01-25T12:58:51.365Z,52.33
2023-01-25T13:01:46.811Z,52.78
2023-01-25T13:04:34.657Z,52.84
2023-01-25T13:07:07.029Z,52.07
2023-01-25T13:10:01.588Z,52.51
2023-01-25T13:12:28.395Z,53.06
2023-01-25T13:14:55.197Z,53.14
2023-01-25T13:17:30.426Z,53.52
2023-01-25T13:19:57.481Z,53.39
2023-01-25T13:22:43.008Z,53.87
2023-01-25T13:25:16.083Z,54.33
2023-01-25T13:27:43.419Z,53.94
2023-01-25T13:30:16.360Z,54.10
2023-01-25T13:32:49.309Z,54.42
2023-01-25T13:35:26.775Z,53.84
2023-01-25T13:38:22.042Z,54.31
2023-01-25T13:41:03.677Z,55.12
2023-01-25T13:43:30.545Z,54.86
2023-01-25T13:45:57.724Z,55.65
2023-01-25T13:48:27.792Z,55.90
2023-01-25T13:51:05.238Z,55.84
2023-01-25T13:53:35.466Z,56.47
2023-01-25T13:56:03.246Z,56.36
2023-01-25T13:58:37.362Z,56.46
2023-01-25T14:01:07.673Z,56.67
2023-01-25T14:03:42.027Z,56.92
2023-01-25T14:06:18.651Z,57.13
2023-01-25T14:08:47.115Z,57.00
2023-01-25T14:11:26.535Z,57.29
2023-01-25T14:14:26.340Z,57.71
2023-01-25T14:17:03.752Z,58.05
2023-01-25T14:19:31.440Z,58.26
2023-01-25T14:22:33.352Z,58.46
2023-01-25T14:25:03.211Z,58.48
2023-01-25T14:27:30.589Z,58.37
2023-01-25T14:29:57.381Z,58.36
2023-01-25T14:32:27.548Z,58.70
2023-01-25T14:34:54.605Z,58.45
2023-01-25T14:37:22.341Z,58.38
2023-01-25T14:39:51.135Z,58.61
2023-01-25T14:42:18.704Z,58.69
2023-01-25T14:44:45.828Z,58.91
2023-01-25T14:47:32.389Z,58.84
2023-01-25T14:50:37.135Z,59.22
2023-01-25T14:53:17.739Z,59.31
2023-01-25T14:55:45.965Z,59.12
2023-01-25T14:58:22.562Z,59.34
2023-01-25T15:01:02.223Z,59.69
2023-01-25T15:03:31.223Z,59.11
2023-01-25T15:06:03.275Z,59.41
2023-01-25T15:08:36.407Z,59.35
2023-01-25T15:11:22.090Z,59.08
2023-01-25T15:13:48.983Z,59.67
2023-01-25T15:16:18.775Z,59.56
2023-01-25T15:18:53.439Z,59.44
2023-01-25T15:21:26.126Z,59.88
2023-01-25T15:23:55.336Z,59.96
2023-01-25T15:26:23.607Z,59.99
2023-01-25T15:28:52.462Z,59.99
2023-01-25T15:31:23.510Z,60.64
2023-01-25T15:33:50.700Z,60.96
2023-01-25T15:36:18.644Z,60.55
2023-01-25T15:38:46.158Z,60.54
2023-01-25T15:41:14.232Z,60.95
2023-01-25T15:43:41.402Z,61.23
2023-01-25T15:46:18.888Z,61.32
2023-01-25T15:48:47.135Z,61.52
2023-01-25T15:51:14.385Z,62.21
2023-01-25T15:53:41.179Z,62.15
2023-01-25T15:56:15.693Z,62.37
2023-01-25T15:58:45.799Z,61.43
2023-01-25T16:01:12.958Z,62.84
2023-01-25T16:03:41.688Z,63.05
2023-01-25T16:06:34.765Z,62.79
2023-01-25T16:09:10.882Z,63.04
2023-01-25T16:11:37.622Z,63.82
2023-01-25T16:14:04.452Z,63.56
2023-01-25T16:16:31.329Z,64.05
2023-01-25T16:18:58.128Z,63.68
2023-01-25T16:21:24.924Z,64.02
2023-01-25T16:23:51.802Z,64.46
2023-01-25T16:26:25.465Z,64.30
2023-01-25T16:28:52.545Z,64.01
2023-01-25T16:31:31.974Z,64.61
2023-01-25T16:34:00.127Z,64.31
2023-01-25T16:36:26.953Z,64.43
2023-01-25T16:38:53.777Z,64.52
2023-01-25T16:41:20.609Z,64.51
2023-01-25T16:43:48.968Z,64.64
2023-01-25T16:46:23.526Z,64.49
2023-01-25T16:48:52.524Z,64.50
2023-01-25T16:51:23.048Z,63.96
2023-01-25T16:53:52.254Z,63.92
2023-01-25T16:56:21.454Z,63.73
2023-01-25T16:58:51.101Z,63.60
2023-01-25T17:01:20.551Z,63.36
2023-01-25T17:03:47.844Z,63.25
2023-01-25T17:06:45.244Z,63.01
2023-01-25T17:09:23.343Z,62.93
2023-01-25T17:11:51.793Z,62.71
2023-01-25T17:14:19.518Z,62.83
2023-01-25T17:16:48.407Z,62.78
2023-01-25T17:19:17.203Z,62.53
2023-01-25T17:21:45.251Z,62.70
2023-01-25T17:24:19.434Z,63.04
2023-01-25T17:26:46.480Z,62.82
2023-01-25T17:29:13.925Z,62.28
2023-01-25T17:31:42.101Z,62.55
2023-01-25T17:34:13.325Z,62.47
2023-01-25T17:36:40.346Z,62.57
2023-01-25T17:39:08.097Z,62.21
2023-01-25T17:41:35.136Z,62.34
2023-01-25T17:44:02.144Z,62.06
2023-01-25T17:46:33.180Z,62.15
2023-01-25T17:49:02.341Z,62.31
2023-01-25T17:51:30.442Z,62.09
2023-01-25T17:53:58.169Z,62.15
2023-01-25T17:56:25.277Z,61.89
2023-01-25T17:58:52.200Z,62.27
2023-01-25T18:01:22.379Z,61.87
2023-01-25T18:03:50.833Z,62.08
2023-01-25T18:06:20.127Z,62.02
2023-01-25T18:08:50.502Z,62.05
2023-01-25T18:11:20.345Z,62.02
2023-01-25T18:13:49.392Z,62.05
2023-01-25T18:16:18.161Z,62.30
2023-01-25T18:18:45.769Z,62.31
2023-01-25T18:21:14.857Z,62.31
2023-01-25T18:23:46.311Z,62.50
2023-01-25T18:26:27.965Z,62.44
2023-01-25T18:28:59.539Z,62.52
2023-01-25T18:31:26.720Z,62.74
2023-01-25T18:33:53.645Z,62.80
2023-01-25T18:36:20.621Z,62.34
2023-01-25T18:38:47.508Z,62.77
2023-01-25T18:41:14.368Z,62.21
2023-01-25T18:43:41.128Z,62.47
2023-01-25T18:46:08.871Z,63.11
2023-01-25T18:48:36.349Z,62.99
2023-01-25T18:51:09.780Z,63.37
2023-01-25T18:53:39.015Z,63.37
2023-01-25T18:56:08.537Z,63.55
2023-01-25T18:58:37.148Z,63.98
2023-01-25T19:01:12.750Z,64.21
2023-01-25T19:03:40.112Z,64.18
2023-01-25T19:06:07.431Z,64.10
2023-01-25T19:08:36.600Z,64.54
2023-01-25T19:11:09.219Z,64.29
2023-01-25T19:13:38.036Z,64.50
2023-01-25T19:16:12.876Z,64.23
2023-01-25T19:18:46.139Z,63.84
2023-01-25T19:21:18.986Z,63.27
2023-01-25T19:23:49.417Z,63.57
2023-01-25T19:26:18.823Z,63.71
2023-01-25T19:28:46.669Z,63.90
2023-01-25T19:31:16.446Z,63.92
2023-01-25T19:33:44.732Z,63.64
2023-01-25T19:36:18.505Z,63.50
2023-01-25T19:38:47.440Z,63.69
2023-01-25T19:41:19.917Z,63.66
2023-01-25T19:43:47.488Z,63.54
2023-01-25T19:46:18.744Z,63.40
2023-01-25T19:48:49.871Z,63.47
2023-01-25T19:51:29.962Z,63.22
2023-01-25T19:54:05.574Z,63.17
2023-01-25T19:56:39.004Z,63.05
2023-01-25T19:59:08.204Z,63.28
2023-01-25T20:01:36.722Z,62.89
2023-01-25T20:04:08.284Z,62.66
2023-01-25T20:06:35.248Z,62.85
2023-01-25T20:09:02.355Z,62.76
2023-01-25T20:11:32.261Z,63.21
2023-01-25T20:14:01.891Z,63.45
2023-01-25T20:16:30.556Z,63.72
2023-01-25T20:18:57.479Z,63.95
2023-01-25T20:21:25.671Z,64.35
2023-01-25T20:24:00.269Z,64.76
2023-01-25T20:26:30.003Z,64.62
2023-01-25T20:28:58.854Z,65.27
2023-01-25T20:31:34.621Z,65.17
2023-01-25T20:34:04.729Z,65.09
2023-01-25T20:36:33.248Z,65.08
2023-01-25T20:39:00.383Z,64.82
2023-01-25T20:41:27.216Z,64.88
2023-01-25T20:44:01.960Z,65.12
2023-01-25T20:46:29.811Z,65.18
2023-01-25T20:48:56.637Z,64.75
2023-01-25T20:51:24.108Z,64.95
2023-01-25T20:53:51.233Z,64.80
2023-01-25T20:56:19.666Z,64.72
2023-01-25T20:58:51.566Z,64.88
2023-01-25T21:01:24.119Z,64.96
2023-01-25T21:03:54.421Z,65.07
2023-01-25T21:06:21.166Z,64.98
2023-01-25T21:08:48.004Z,64.60
2023-01-25T21:11:15.293Z,64.86
2023-01-25T21:13:42.756Z,64.85
2023-01-25T21:16:12.412Z,64.82
2023-01-25T21:18:44.839Z,64.61
2023-01-25T21:21:20.982Z,65.36
2023-01-25T21:23:49.917Z,65.00
2023-01-25T21:26:23.934Z,65.22
2023-01-25T21:28:52.129Z,65.28
2023-01-25T21:31:21.816Z,65.15
2023-01-25T21:33:49.274Z,65.37
2023-01-25T21:36:17.299Z,65.17
2023-01-25T21:38:46.314Z,64.39
2023-01-25T21:41:21.953Z,64.49
2023-01-25T21:44:07.786Z,64.47
2023-01-25T21:46:36.365Z,63.30
2023-01-25T21:49:25.014Z,63.40
2023-01-25T21:51:55.912Z,62.99
2023-01-25T21:54:24.878Z,63.29
2023-01-25T21:56:54.408Z,64.06
2023-01-25T21:59:22.490Z,64.19
2023-01-25T22:01:50.795Z,63.24
2023-01-25T22:04:19.388Z,63.08
2023-01-25T22:06:48.751Z,63.66
2023-01-25T22:09:16.468Z,63.44
2023-01-25T22:11:46.456Z,64.28
2023-01-25T22:14:23.824Z,64.04
2023-01-25T22:16:51.844Z,63.73
2023-01-25T22:19:18.915Z,63.82
2023-01-25T22:21:46.047Z,63.98
2023-01-25T22:24:14.594Z,64.53
2023-01-25T22:27:03.129Z,64.32
2023-01-25T22:29:31.270Z,64.51
2023-01-25T22:31:58.704Z,64.65
2023-01-25T22:34:25.514Z,64.13
2023-01-25T22:36:52.307Z,64.22
2023-01-25T22:39:19.090Z,63.32
2023-01-25T22:41:47.751Z,63.15
2023-01-25T22:44:14.806Z,63.35
2023-01-25T22:46:41.714Z,63.39
2023-01-25T22:49:09.140Z,63.30
2023-01-25T22:51:36.255Z,62.81
2023-01-25T22:54:05.211Z,63.21
2023-01-25T22:56:34.223Z,63.21
2023-01-25T22:59:01.879Z,63.47
2023-01-25T23:01:33.799Z,63.06
2023-01-25T23:04:01.752Z,63.21
2023-01-25T23:06:31.789Z,63.05
2023-01-25T23:09:01.454Z,63.17
2023-01-25T23:11:36.031Z,63.26
2023-01-25T23:14:24.699Z,63.46
2023-01-25T23:16:51.488Z,63.66
2023-01-25T23:19:19.005Z,63.80
2023-01-25T23:21:46.543Z,63.85
2023-01-25T23:24:14.476Z,63.91
2023-01-25T23:26:46.690Z,64.05
2023-01-25T23:29:14.531Z,64.37
2023-01-25T23:31:43.322Z,64.41
2023-01-25T23:34:11.696Z,64.48
2023-01-25T23:36:39.827Z,64.57
2023-01-25T23:39:06.853Z,64.99
2023-01-25T23:41:34.218Z,65.46
2023-01-25T23:44:02.123Z,65.22
2023-01-25T23:46:30.379Z,65.26
2023-01-25T23:48:57.206Z,65.61
2023-01-25T23:51:24.204Z,65.75
2023-01-25T23:53:53.427Z,65.68
2023-01-25T23:56:22.034Z,65.71
2023-01-25T23:58:50.539Z,66.01
